sensor_id;sensor_type;location;lat;lon;timestamp;temperature;humidity
71649;SHT31;70112;45.624;11.760;2024-01-15T00:01:35;5.11;69.88
71649;SHT31;70112;45.624;11.760;2024-01-15T00:04:24;5.12;69.83
71649;SHT31;70112;45.624;11.760;2024-01-15T00:09:47;5.10;70.07
71649;SHT31;70112;45.624;11.760;2024-01-15T00:12:13;5.10;70.10
71649;SHT31;70112;45.624;11.760;2024-01-15T00:14:39;5.07;70.04
71649;SHT31;70112;45.624;11.760;2024-01-15T00:17:08;5.05;70.07
71649;SHT31;70112;45.624;11.760;2024-01-15T00:19:37;5.07;70.12
71649;SHT31;70112;45.624;11.760;2024-01-15T00:22:19;5.08;70.00
71649;SHT31;70112;45.624;11.760;2024-01-15T00:30:50;5.11;70.00
71649;SHT31;70112;45.624;11.760;2024-01-15T00:33:22;5.16;69.91
71649;SHT31;70112;45.624;11.760;2024-01-15T00:36:30;5.21;69.90
71649;SHT31;70112;45.624;11.760;2024-01-15T00:39:05;5.22;69.87
71649;SHT31;70112;45.624;11.760;2024-01-15T00:41:43;5.20;69.91
71649;SHT31;70112;45.624;11.760;2024-01-15T00:44:33;5.19;69.92
71649;SHT31;70112;45.624;11.760;2024-01-15T00:50:50;5.20;69.91
71649;SHT31;70112;45.624;11.760;2024-01-15T00:53:23;5.24;69.89
71649;SHT31;70112;45.624;11.760;2024-01-15T00:56:17;5.26;69.90
71649;SHT31;70112;45.624;11.760;2024-01-15T00:59:47;5.26;70.00
71649;SHT31;70112;45.624;11.760;2024-01-15T01:02:22;5.24;69.99
71649;SHT31;70112;45.624;11.760;2024-01-15T01:04:48;5.22;69.94
71649;SHT31;70112;45.624;11.760;2024-01-15T01:10:26;5.22;70.00
71649;SHT31;70112;45.624;11.760;2024-01-15T01:13:05;5.23;69.87
71649;SHT31;70112;45.624;11.760;2024-01-15T01:18:22;5.21;69.90
71649;SHT31;70112;45.624;11.760;2024-01-15T01:21:08;5.23;69.96
71649;SHT31;70112;45.624;11.760;2024-01-15T01:23:52;5.23;69.90
71649;SHT31;70112;45.624;11.760;2024-01-15T01:26:53;5.21;69.90
71649;SHT31;70112;45.624;11.760;2024-01-15T01:29:19;5.19;70.05
71649;SHT31;70112;45.624;11.760;2024-01-15T01:34:32;5.17;70.09
71649;SHT31;70112;45.624;11.760;2024-01-15T01:37:31;5.15;70.09
71649;SHT31;70112;45.624;11.760;2024-01-15T01:43:27;5.13;70.07
71649;SHT31;70112;45.624;11.760;2024-01-15T01:46:07;5.09;70.10
71649;SHT31;70112;45.624;11.760;2024-01-15T01:48:42;5.04;70.18
71649;SHT31;70112;45.624;11.760;2024-01-15T01:51:51;4.99;70.26
71649;SHT31;70112;45.624;11.760;2024-01-15T01:54:24;4.99;70.31
71649;SHT31;70112;45.624;11.760;2024-01-15T02:00:14;4.97;70.36
71649;SHT31;70112;45.624;11.760;2024-01-15T02:03:33;4.96;70.47
71649;SHT31;70112;45.624;11.760;2024-01-15T02:09:12;4.85;70.40
71649;SHT31;70112;45.624;11.760;2024-01-15T02:11:45;4.79;70.34
71649;SHT31;70112;45.624;11.760;2024-01-15T02:17:30;4.64;70.57
71649;SHT31;70112;45.624;11.760;2024-01-15T02:23:43;4.57;70.47
71649;SHT31;70112;45.624;11.760;2024-01-15T02:27:13;4.52;70.40
71649;SHT31;70112;45.624;11.760;2024-01-15T02:30:08;4.41;70.49
71649;SHT31;70112;45.624;11.760;2024-01-15T02:33:07;4.37;70.67
71649;SHT31;70112;45.624;11.760;2024-01-15T02:35:59;4.35;70.69
71649;SHT31;70112;45.624;11.760;2024-01-15T02:38:23;4.32;70.76
71649;SHT31;70112;45.624;11.760;2024-01-15T02:44:28;4.33;70.72
71649;SHT31;70112;45.624;11.760;2024-01-15T02:47:15;4.25;70.68
71649;SHT31;70112;45.624;11.760;2024-01-15T02:50:01;4.13;70.82
71649;SHT31;70112;45.624;11.760;2024-01-15T02:53:02;4.06;70.95
71649;SHT31;70112;45.624;11.760;2024-01-15T02:56:14;4.04;71.07
71649;SHT31;70112;45.624;11.760;2024-01-15T02:59:10;4.06;70.99
71649;SHT31;70112;45.624;11.760;2024-01-15T03:08:30;3.96;71.10
71649;SHT31;70112;45.624;11.760;2024-01-15T03:11:10;3.93;71.14
71649;SHT31;70112;45.624;11.760;2024-01-15T03:18:26;3.85;71.29
71649;SHT31;70112;45.624;11.760;2024-01-15T03:21:10;3.80;71.20
71649;SHT31;70112;45.624;11.760;2024-01-15T03:24:13;3.71;71.28
71649;SHT31;70112;45.624;11.760;2024-01-15T03:27:27;3.63;71.36
71649;SHT31;70112;45.624;11.760;2024-01-15T03:36:24;3.61;71.48
71649;SHT31;70112;45.624;11.760;2024-01-15T03:48:59;3.56;71.41
71649;SHT31;70112;45.624;11.760;2024-01-15T03:52:04;3.52;71.53
71649;SHT31;70112;45.624;11.760;2024-01-15T03:55:06;3.46;71.34
71649;SHT31;70112;45.624;11.760;2024-01-15T03:58:17;3.41;71.33
71649;SHT31;70112;45.624;11.760;2024-01-15T04:20:24;3.24;72.00
71649;SHT31;70112;45.624;11.760;2024-01-15T04:23:28;3.25;71.94
71649;SHT31;70112;45.624;11.760;2024-01-15T04:26:13;3.26;71.75
71649;SHT31;70112;45.624;11.760;2024-01-15T04:29:25;3.22;71.70
71649;SHT31;70112;45.624;11.760;2024-01-15T04:35:18;3.13;71.80
71649;SHT31;70112;45.624;11.760;2024-01-15T04:45:31;3.01;72.17
71649;SHT31;70112;45.624;11.760;2024-01-15T04:56:04;3.04;72.12
71649;SHT31;70112;45.624;11.760;2024-01-15T05:15:27;2.90;72.08
71649;SHT31;70112;45.624;11.760;2024-01-15T05:21:53;2.81;72.28
71649;SHT31;70112;45.624;11.760;2024-01-15T05:45:11;2.89;72.65
71649;SHT31;70112;45.624;11.760;2024-01-15T05:58:14;2.93;72.60
71649;SHT31;70112;45.624;11.760;2024-01-15T06:01:38;2.91;72.69
71649;SHT31;70112;45.624;11.760;2024-01-15T06:18:24;2.87;72.50
71649;SHT31;70112;45.624;11.760;2024-01-15T06:21:18;2.81;72.50
71649;SHT31;70112;45.624;11.760;2024-01-15T06:24:21;2.76;72.56
71649;SHT31;70112;45.624;11.760;2024-01-15T06:27:30;2.75;72.70
71649;SHT31;70112;45.624;11.760;2024-01-15T06:37:31;2.80;72.84
71649;SHT31;70112;45.624;11.760;2024-01-15T06:40:22;2.80;72.77
71649;SHT31;70112;45.624;11.760;2024-01-15T06:43:34;2.79;72.70
71649;SHT31;70112;45.624;11.760;2024-01-15T06:49:25;2.78;72.76
71649;SHT31;70112;45.624;11.760;2024-01-15T06:52:25;2.80;72.73
71649;SHT31;70112;45.624;11.760;2024-01-15T06:55:50;2.83;72.71
71649;SHT31;70112;45.624;11.760;2024-01-15T06:58:44;2.89;72.70
71649;SHT31;70112;45.624;11.760;2024-01-15T07:05:34;2.92;72.68
71649;SHT31;70112;45.624;11.760;2024-01-15T07:20:45;3.02;72.84
71649;SHT31;70112;45.624;11.760;2024-01-15T07:23:31;3.06;72.80
71649;SHT31;70112;45.624;11.760;2024-01-15T07:29:15;3.17;72.78
71649;SHT31;70112;45.624;11.760;2024-01-15T07:31:59;3.17;72.70
71649;SHT31;70112;45.624;11.760;2024-01-15T07:34:59;3.17;72.76
71649;SHT31;70112;45.624;11.760;2024-01-15T07:40:56;3.22;73.22
71649;SHT31;70112;45.624;11.760;2024-01-15T08:00:29;3.37;73.33
71649;SHT31;70112;45.624;11.760;2024-01-15T08:06:37;3.27;73.23
71649;SHT31;70112;45.624;11.760;2024-01-15T08:09:03;3.21;73.22
71649;SHT31;70112;45.624;11.760;2024-01-15T08:14:18;3.25;73.39
71649;SHT31;70112;45.624;11.760;2024-01-15T08:16:55;3.30;73.23
71649;SHT31;70112;45.624;11.760;2024-01-15T08:19:26;3.35;73.13
71649;SHT31;70112;45.624;11.760;2024-01-15T08:21:54;3.38;73.01
71649;SHT31;70112;45.624;11.760;2024-01-15T08:24:23;3.39;72.92
71649;SHT31;70112;45.624;11.760;2024-01-15T08:29:45;3.44;73.01
71649;SHT31;70112;45.624;11.760;2024-01-15T08:36:00;3.54;72.91
71649;SHT31;70112;45.624;11.760;2024-01-15T08:38:53;3.64;72.93
71649;SHT31;70112;45.624;11.760;2024-01-15T08:44:37;3.92;72.70
71649;SHT31;70112;45.624;11.760;2024-01-15T08:47:14;4.07;72.47
71649;SHT31;70112;45.624;11.760;2024-01-15T08:49:42;4.16;72.34
71649;SHT31;70112;45.624;11.760;2024-01-15T08:52:41;4.27;72.19
71649;SHT31;70112;45.624;11.760;2024-01-15T08:55:06;4.72;71.89
71649;SHT31;70112;45.624;11.760;2024-01-15T08:58:01;5.03;71.50
71649;SHT31;70112;45.624;11.760;2024-01-15T09:01:19;5.98;70.49
71649;SHT31;70112;45.624;11.760;2024-01-15T09:03:59;6.95;69.59
71649;SHT31;70112;45.624;11.760;2024-01-15T09:06:48;8.08;68.07
71649;SHT31;70112;45.624;11.760;2024-01-15T09:12:27;10.29;64.61
71649;SHT31;70112;45.624;11.760;2024-01-15T09:15:15;11.23;62.91
71649;SHT31;70112;45.624;11.760;2024-01-15T09:17:45;12.11;61.03
71649;SHT31;70112;45.624;11.760;2024-01-15T09:20:13;12.68;59.64
71649;SHT31;70112;45.624;11.760;2024-01-15T09:22:55;13.32;58.18
71649;SHT31;70112;45.624;11.760;2024-01-15T09:25:25;13.94;56.91
71649;SHT31;70112;45.624;11.760;2024-01-15T09:28:18;14.38;55.26
71649;SHT31;70112;45.624;11.760;2024-01-15T09:30:44;14.82;54.27
71649;SHT31;70112;45.624;11.760;2024-01-15T09:33:13;15.19;52.82
71649;SHT31;70112;45.624;11.760;2024-01-15T09:35:38;15.53;52.12
71649;SHT31;70112;45.624;11.760;2024-01-15T09:38:04;16.00;51.17
71649;SHT31;70112;45.624;11.760;2024-01-15T09:40:31;16.14;50.24
71649;SHT31;70112;45.624;11.760;2024-01-15T09:43:00;15.51;50.17
71649;SHT31;70112;45.624;11.760;2024-01-15T09:45:27;14.45;50.80
71649;SHT31;70112;45.624;11.760;2024-01-15T09:47:57;13.55;51.51
71649;SHT31;70112;45.624;11.760;2024-01-15T09:50:33;12.84;51.98
71649;SHT31;70112;45.624;11.760;2024-01-15T09:53:01;12.17;52.36
71649;SHT31;70112;45.624;11.760;2024-01-15T09:55:27;11.59;52.85
71649;SHT31;70112;45.624;11.760;2024-01-15T09:57:53;11.16;53.61
71649;SHT31;70112;45.624;11.760;2024-01-15T10:00:21;10.85;54.16
71649;SHT31;70112;45.624;11.760;2024-01-15T10:02:47;10.61;54.59
71649;SHT31;70112;45.624;11.760;2024-01-15T10:05:14;10.41;55.10
71649;SHT31;70112;45.624;11.760;2024-01-15T10:07:40;10.16;55.48
71649;SHT31;70112;45.624;11.760;2024-01-15T10:10:11;9.94;55.88
71649;SHT31;70112;45.624;11.760;2024-01-15T10:12:37;9.82;56.41
71649;SHT31;70112;45.624;11.760;2024-01-15T10:15:13;9.74;56.88
71649;SHT31;70112;45.624;11.760;2024-01-15T10:18:00;9.61;57.16
71649;SHT31;70112;45.624;11.760;2024-01-15T10:20:25;9.56;57.55
71649;SHT31;70112;45.624;11.760;2024-01-15T10:22:51;9.60;57.72
71649;SHT31;70112;45.624;11.760;2024-01-15T10:25:41;9.64;57.96
71649;SHT31;70112;45.624;11.760;2024-01-15T10:28:07;9.63;58.01
71649;SHT31;70112;45.624;11.760;2024-01-15T10:30:33;9.61;58.01
71649;SHT31;70112;45.624;11.760;2024-01-15T10:33:03;9.52;57.99
71649;SHT31;70112;45.624;11.760;2024-01-15T10:35:30;9.41;58.21
71649;SHT31;70112;45.624;11.760;2024-01-15T10:37:58;9.31;58.30
71649;SHT31;70112;45.624;11.760;2024-01-15T10:40:28;9.20;58.41
71649;SHT31;70112;45.624;11.760;2024-01-15T10:42:54;9.12;58.77
71649;SHT31;70112;45.624;11.760;2024-01-15T10:45:20;9.08;58.87
71649;SHT31;70112;45.624;11.760;2024-01-15T10:47:46;9.03;59.04
71649;SHT31;70112;45.624;11.760;2024-01-15T10:50:13;9.08;59.43
71649;SHT31;70112;45.624;11.760;2024-01-15T10:52:40;9.17;59.50
71649;SHT31;70112;45.624;11.760;2024-01-15T10:55:09;9.27;59.54
71649;SHT31;70112;45.624;11.760;2024-01-15T10:57:38;9.31;59.40
71649;SHT31;70112;45.624;11.760;2024-01-15T11:00:04;9.30;59.30
71649;SHT31;70112;45.624;11.760;2024-01-15T11:05:20;9.29;59.48
71649;SHT31;70112;45.624;11.760;2024-01-15T11:07:49;9.30;59.47
71649;SHT31;70112;45.624;11.760;2024-01-15T11:11:00;9.35;59.46
71649;SHT31;70112;45.624;11.760;2024-01-15T11:16:05;9.47;59.16
71649;SHT31;70112;45.624;11.760;2024-01-15T11:18:45;9.45;59.07
71649;SHT31;70112;45.624;11.760;2024-01-15T11:21:27;9.41;59.10
71649;SHT31;70112;45.624;11.760;2024-01-15T11:23:56;9.43;59.02
71649;SHT31;70112;45.624;11.760;2024-01-15T11:29:30;9.46;59.37
71649;SHT31;70112;45.624;11.760;2024-01-15T11:32:06;9.47;59.32
71649;SHT31;70112;45.624;11.760;2024-01-15T11:40:20;9.39;59.30
71649;SHT31;70112;45.624;11.760;2024-01-15T11:42:48;9.34;59.38
71649;SHT31;70112;45.624;11.760;2024-01-15T11:45:38;9.30;59.64
71649;SHT31;70112;45.624;11.760;2024-01-15T11:51:10;9.31;59.72
71649;SHT31;70112;45.624;11.760;2024-01-15T11:53:47;9.31;59.76
71649;SHT31;70112;45.624;11.760;2024-01-15T11:56:17;9.22;59.68
71649;SHT31;70112;45.624;11.760;2024-01-15T11:58:45;9.17;59.98
71649;SHT31;70112;45.624;11.760;2024-01-15T12:06:23;9.20;60.36
71649;SHT31;70112;45.624;11.760;2024-01-15T12:08:49;9.26;60.38
71649;SHT31;70112;45.624;11.760;2024-01-15T12:11:15;9.29;60.07
71649;SHT31;70112;45.624;11.760;2024-01-15T12:13:47;9.22;59.94
71649;SHT31;70112;45.624;11.760;2024-01-15T12:16:12;9.15;60.02
71649;SHT31;70112;45.624;11.760;2024-01-15T12:18:38;9.12;60.18
71649;SHT31;70112;45.624;11.760;2024-01-15T12:21:04;9.13;60.28
71649;SHT31;70112;45.624;11.760;2024-01-15T12:23:30;9.10;60.33
71649;SHT31;70112;45.624;11.760;2024-01-15T12:26:20;9.13;60.64
71649;SHT31;70112;45.624;11.760;2024-01-15T12:28:45;9.15;60.70
71649;SHT31;70112;45.624;11.760;2024-01-15T12:31:10;9.17;60.62
71649;SHT31;70112;45.624;11.760;2024-01-15T12:33:36;9.17;60.54
71649;SHT31;70112;45.624;11.760;2024-01-15T12:36:02;9.16;60.64
71649;SHT31;70112;45.624;11.760;2024-01-15T12:38:29;9.14;60.57
71649;SHT31;70112;45.624;11.760;2024-01-15T12:40:54;9.10;60.60
71649;SHT31;70112;45.624;11.760;2024-01-15T12:43:20;9.10;60.70
71649;SHT31;70112;45.624;11.760;2024-01-15T12:45:45;9.09;60.79
71649;SHT31;70112;45.624;11.760;2024-01-15T12:48:11;9.05;60.82
71649;SHT31;70112;45.624;11.760;2024-01-15T12:50:42;8.97;60.80
71649;SHT31;70112;45.624;11.760;2024-01-15T12:53:08;8.90;60.90
71649;SHT31;70112;45.624;11.760;2024-01-15T12:55:34;8.88;60.99
71649;SHT31;70112;45.624;11.760;2024-01-15T12:57:59;8.90;61.05
71649;SHT31;70112;45.624;11.760;2024-01-15T13:00:25;8.89;61.15
71649;SHT31;70112;45.624;11.760;2024-01-15T13:02:51;8.90;61.24
71649;SHT31;70112;45.624;11.760;2024-01-15T13:05:21;8.90;61.31
71649;SHT31;70112;45.624;11.760;2024-01-15T13:08:12;8.88;61.43
71649;SHT31;70112;45.624;11.760;2024-01-15T13:10:37;8.91;61.55
71649;SHT31;70112;45.624;11.760;2024-01-15T13:13:14;8.95;61.47
71649;SHT31;70112;45.624;11.760;2024-01-15T13:16:00;8.92;61.41
71649;SHT31;70112;45.624;11.760;2024-01-15T13:18:25;8.88;61.41
71649;SHT31;70112;45.624;11.760;2024-01-15T13:21:00;8.84;61.54
71649;SHT31;70112;45.624;11.760;2024-01-15T13:23:25;8.84;61.61
71649;SHT31;70112;45.624;11.760;2024-01-15T13:25:51;8.82;61.71
71649;SHT31;70112;45.624;11.760;2024-01-15T13:28:16;8.81;61.84
71649;SHT31;70112;45.624;11.760;2024-01-15T13:30:42;8.82;61.90
71649;SHT31;70112;45.624;11.760;2024-01-15T13:33:08;8.80;62.04
71649;SHT31;70112;45.624;11.760;2024-01-15T13:35:55;8.79;62.16
71649;SHT31;70112;45.624;11.760;2024-01-15T13:38:20;8.76;62.19
71649;SHT31;70112;45.624;11.760;2024-01-15T13:40:45;8.75;62.19
71649;SHT31;70112;45.624;11.760;2024-01-15T13:43:11;8.79;62.36
71649;SHT31;70112;45.624;11.760;2024-01-15T13:45:39;8.85;62.29
71649;SHT31;70112;45.624;11.760;2024-01-15T13:48:06;8.90;62.07
71649;SHT31;70112;45.624;11.760;2024-01-15T13:50:33;8.91;61.97
71649;SHT31;70112;45.624;11.760;2024-01-15T13:53:08;8.93;61.90
71649;SHT31;70112;45.624;11.760;2024-01-15T13:55:36;8.92;61.90
71649;SHT31;70112;45.624;11.760;2024-01-15T13:58:05;8.89;61.90
71649;SHT31;70112;45.624;11.760;2024-01-15T14:03:39;8.74;61.93
71649;SHT31;70112;45.624;11.760;2024-01-15T14:06:05;8.69;62.07
71649;SHT31;70112;45.624;11.760;2024-01-15T14:08:34;8.68;62.20
71649;SHT31;70112;45.624;11.760;2024-01-15T14:11:02;8.66;62.30
71649;SHT31;70112;45.624;11.760;2024-01-15T14:13:32;8.60;62.23
71649;SHT31;70112;45.624;11.760;2024-01-15T14:15:59;8.58;62.44
71649;SHT31;70112;45.624;11.760;2024-01-15T14:18:33;8.57;62.50
71649;SHT31;70112;45.624;11.760;2024-01-15T14:21:18;8.55;62.60
71649;SHT31;70112;45.624;11.760;2024-01-15T14:23:43;8.55;62.58
71649;SHT31;70112;45.624;11.760;2024-01-15T14:26:12;8.55;62.50
71649;SHT31;70112;45.624;11.760;2024-01-15T14:28:40;8.56;62.47
71649;SHT31;70112;45.624;11.760;2024-01-15T14:31:06;8.55;62.49
71649;SHT31;70112;45.624;11.760;2024-01-15T14:34:04;8.55;62.60
71649;SHT31;70112;45.624;11.760;2024-01-15T14:42:05;8.45;62.55
71649;SHT31;70112;45.624;11.760;2024-01-15T14:44:31;8.42;62.59
71649;SHT31;70112;45.624;11.760;2024-01-15T14:47:00;8.38;62.60
71649;SHT31;70112;45.624;11.760;2024-01-15T14:49:26;8.33;62.62
71649;SHT31;70112;45.624;11.760;2024-01-15T14:51:54;8.27;62.74
71649;SHT31;70112;45.624;11.760;2024-01-15T14:54:28;8.24;63.03
71649;SHT31;70112;45.624;11.760;2024-01-15T14:57:02;8.21;63.33
71649;SHT31;70112;45.624;11.760;2024-01-15T14:59:28;8.20;63.42
71649;SHT31;70112;45.624;11.760;2024-01-15T15:02:05;8.21;63.59
71649;SHT31;70112;45.624;11.760;2024-01-15T15:04:31;8.23;63.67
71649;SHT31;70112;45.624;11.760;2024-01-15T15:06:57;8.23;63.77
71649;SHT31;70112;45.624;11.760;2024-01-15T15:09:32;8.23;63.88
71649;SHT31;70112;45.624;11.760;2024-01-15T15:11:58;8.18;64.07
71649;SHT31;70112;45.624;11.760;2024-01-15T15:14:23;8.14;64.12
71649;SHT31;70112;45.624;11.760;2024-01-15T15:16:54;8.10;64.20
71649;SHT31;70112;45.624;11.760;2024-01-15T15:19:43;8.09;64.20
71649;SHT31;70112;45.624;11.760;2024-01-15T15:22:17;8.06;64.24
71649;SHT31;70112;45.624;11.760;2024-01-15T15:24:44;8.03;64.30
71649;SHT31;70112;45.624;11.760;2024-01-15T15:27:10;8.02;64.41
71649;SHT31;70112;45.624;11.760;2024-01-15T15:29:41;7.99;64.54
71649;SHT31;70112;45.624;11.760;2024-01-15T15:32:12;7.98;64.64
71649;SHT31;70112;45.624;11.760;2024-01-15T15:34:38;7.99;64.71
71649;SHT31;70112;45.624;11.760;2024-01-15T15:37:09;7.95;64.80
71649;SHT31;70112;45.624;11.760;2024-01-15T15:39:34;7.90;64.94
71649;SHT31;70112;45.624;11.760;2024-01-15T15:42:00;7.88;65.01
71649;SHT31;70112;45.624;11.760;2024-01-15T15:44:26;7.83;65.07
71649;SHT31;70112;45.624;11.760;2024-01-15T15:46:52;7.79;65.18
71649;SHT31;70112;45.624;11.760;2024-01-15T15:49:21;7.71;65.12
71649;SHT31;70112;45.624;11.760;2024-01-15T15:51:48;7.57;65.23
71649;SHT31;70112;45.624;11.760;2024-01-15T15:54:14;7.46;65.36
71649;SHT31;70112;45.624;11.760;2024-01-15T15:57:08;7.38;65.48
71649;SHT31;70112;45.624;11.760;2024-01-15T15:59:35;7.31;65.55
71649;SHT31;70112;45.624;11.760;2024-01-15T16:02:01;7.28;65.68
71649;SHT31;70112;45.624;11.760;2024-01-15T16:04:27;7.27;65.70
71649;SHT31;70112;45.624;11.760;2024-01-15T16:06:53;7.25;65.70
71649;SHT31;70112;45.624;11.760;2024-01-15T16:09:19;7.20;65.74
71649;SHT31;70112;45.624;11.760;2024-01-15T16:11:45;7.11;65.84
71649;SHT31;70112;45.624;11.760;2024-01-15T16:14:11;7.06;65.89
71649;SHT31;70112;45.624;11.760;2024-01-15T16:16:58;6.99;65.96
71649;SHT31;70112;45.624;11.760;2024-01-15T16:19:23;6.95;66.04
71649;SHT31;70112;45.624;11.760;2024-01-15T16:21:57;6.92;66.10
71649;SHT31;70112;45.624;11.760;2024-01-15T16:24:31;6.82;66.06
71649;SHT31;70112;45.624;11.760;2024-01-15T16:26:57;6.71;66.33
71649;SHT31;70112;45.624;11.760;2024-01-15T16:29:31;6.68;66.40
71649;SHT31;70112;45.624;11.760;2024-01-15T16:32:09;6.57;66.45
71649;SHT31;70112;45.624;11.760;2024-01-15T16:34:55;6.48;66.71
71649;SHT31;70112;45.624;11.760;2024-01-15T16:37:24;6.45;66.82
71649;SHT31;70112;45.624;11.760;2024-01-15T16:39:50;6.39;66.99
71649;SHT31;70112;45.624;11.760;2024-01-15T16:42:15;6.34;67.12
71649;SHT31;70112;45.624;11.760;2024-01-15T16:50:49;6.23;67.28
71649;SHT31;70112;45.624;11.760;2024-01-15T16:53:14;6.23;67.36
71649;SHT31;70112;45.624;11.760;2024-01-15T16:58:19;6.32;67.38
71649;SHT31;70112;45.624;11.760;2024-01-15T17:01:00;6.26;67.29
71649;SHT31;70112;45.624;11.760;2024-01-15T17:03:29;6.19;67.43
71649;SHT31;70112;45.624;11.760;2024-01-15T17:06:04;6.17;67.42
71649;SHT31;70112;45.624;11.760;2024-01-15T17:08:30;6.16;67.50
71649;SHT31;70112;45.624;11.760;2024-01-15T17:10:56;6.15;67.49
71649;SHT31;70112;45.624;11.760;2024-01-15T17:13:41;6.12;67.33
71649;SHT31;70112;45.624;11.760;2024-01-15T17:16:12;5.95;67.47
71649;SHT31;70112;45.624;11.760;2024-01-15T17:18:47;5.83;67.76
71649;SHT31;70112;45.624;11.760;2024-01-15T17:21:35;5.70;67.67
71649;SHT31;70112;45.624;11.760;2024-01-15T17:24:41;5.51;67.81
71649;SHT31;70112;45.624;11.760;2024-01-15T17:30:10;5.45;68.18
71649;SHT31;70112;45.624;11.760;2024-01-15T17:32:39;5.49;68.10
71649;SHT31;70112;45.624;11.760;2024-01-15T17:35:08;5.54;68.05
71649;SHT31;70112;45.624;11.760;2024-01-15T17:37:34;5.57;68.00
71649;SHT31;70112;45.624;11.760;2024-01-15T17:40:08;5.57;67.87
71649;SHT31;70112;45.624;11.760;2024-01-15T17:42:37;5.48;67.88
71649;SHT31;70112;45.624;11.760;2024-01-15T17:45:06;5.42;67.92
71649;SHT31;70112;45.624;11.760;2024-01-15T17:47:54;5.33;68.03
71649;SHT31;70112;45.624;11.760;2024-01-15T17:50:20;5.28;68.21
71649;SHT31;70112;45.624;11.760;2024-01-15T17:52:48;5.28;68.37
71649;SHT31;70112;45.624;11.760;2024-01-15T17:55:29;5.34;68.40
71649;SHT31;70112;45.624;11.760;2024-01-15T17:58:06;5.38;68.33
71649;SHT31;70112;45.624;11.760;2024-01-15T18:00:32;5.41;68.29
71649;SHT31;70112;45.624;11.760;2024-01-15T18:03:35;5.37;68.20
71649;SHT31;70112;45.624;11.760;2024-01-15T18:06:07;5.32;68.34
71649;SHT31;70112;45.624;11.760;2024-01-15T18:08:35;5.31;68.50
71649;SHT31;70112;45.624;11.760;2024-01-15T18:11:03;5.35;68.44
71649;SHT31;70112;45.624;11.760;2024-01-15T18:13:31;5.37;68.37
71649;SHT31;70112;45.624;11.760;2024-01-15T18:16:00;5.33;68.11
71649;SHT31;70112;45.624;11.760;2024-01-15T18:18:34;5.22;68.13
71649;SHT31;70112;45.624;11.760;2024-01-15T18:21:03;5.15;68.19
71649;SHT31;70112;45.624;11.760;2024-01-15T18:24:12;5.03;68.39
71649;SHT31;70112;45.624;11.760;2024-01-15T18:26:50;5.01;68.54
71649;SHT31;70112;45.624;11.760;2024-01-15T18:29:19;4.96;68.57
71649;SHT31;70112;45.624;11.760;2024-01-15T18:32:09;4.92;68.80
71649;SHT31;70112;45.624;11.760;2024-01-15T18:34:37;4.95;68.92
71649;SHT31;70112;45.624;11.760;2024-01-15T18:37:03;4.96;69.00
71649;SHT31;70112;45.624;11.760;2024-01-15T18:39:32;4.93;69.01
71649;SHT31;70112;45.624;11.760;2024-01-15T18:42:07;4.91;69.10
71649;SHT31;70112;45.624;11.760;2024-01-15T18:44:49;4.90;69.12
71649;SHT31;70112;45.624;11.760;2024-01-15T18:47:24;4.91;69.17
71649;SHT31;70112;45.624;11.760;2024-01-15T18:50:31;4.90;69.09
71649;SHT31;70112;45.624;11.760;2024-01-15T18:52:59;4.82;68.84
71649;SHT31;70112;45.624;11.760;2024-01-15T18:55:49;4.71;68.93
71649;SHT31;70112;45.624;11.760;2024-01-15T18:58:25;4.61;69.13
71649;SHT31;70112;45.624;11.760;2024-01-15T19:01:27;4.55;69.33
71649;SHT31;70112;45.624;11.760;2024-01-15T19:04:00;4.54;69.49
71649;SHT31;70112;45.624;11.760;2024-01-15T19:06:44;4.53;69.53
71649;SHT31;70112;45.624;11.760;2024-01-15T19:09:15;4.46;69.50
71649;SHT31;70112;45.624;11.760;2024-01-15T19:11:44;4.40;69.66
71649;SHT31;70112;45.624;11.760;2024-01-15T19:23:20;4.17;70.26
71649;SHT31;70112;45.624;11.760;2024-01-15T19:25:52;4.22;70.29
71649;SHT31;70112;45.624;11.760;2024-01-15T19:28:26;4.26;70.26
71649;SHT31;70112;45.624;11.760;2024-01-15T19:31:14;4.27;70.33
71649;SHT31;70112;45.624;11.760;2024-01-15T19:33:48;4.35;70.30
71649;SHT31;70112;45.624;11.760;2024-01-15T19:36:25;4.41;70.23
71649;SHT31;70112;45.624;11.760;2024-01-15T19:42:10;4.43;70.09
71649;SHT31;70112;45.624;11.760;2024-01-15T19:44:56;4.46;70.04
71649;SHT31;70112;45.624;11.760;2024-01-15T19:47:23;4.43;69.94
71649;SHT31;70112;45.624;11.760;2024-01-15T19:50:00;4.37;70.02
71649;SHT31;70112;45.624;11.760;2024-01-15T19:52:31;4.35;70.14
71649;SHT31;70112;45.624;11.760;2024-01-15T19:55:01;4.34;70.22
71649;SHT31;70112;45.624;11.760;2024-01-15T19:57:27;4.36;70.21
71649;SHT31;70112;45.624;11.760;2024-01-15T20:00:17;4.41;70.29
71649;SHT31;70112;45.624;11.760;2024-01-15T20:02:45;4.45;70.27
71649;SHT31;70112;45.624;11.760;2024-01-15T20:05:11;4.50;70.29
71649;SHT31;70112;45.624;11.760;2024-01-15T20:07:40;4.53;70.28
71649;SHT31;70112;45.624;11.760;2024-01-15T20:10:06;4.55;70.19
71649;SHT31;70112;45.624;11.760;2024-01-15T20:12:34;4.50;70.10
71649;SHT31;70112;45.624;11.760;2024-01-15T20:15:22;4.44;70.13
71649;SHT31;70112;45.624;11.760;2024-01-15T20:17:46;4.35;70.10
71649;SHT31;70112;45.624;11.760;2024-01-15T20:20:15;4.29;70.19
71649;SHT31;70112;45.624;11.760;2024-01-15T20:22:41;4.28;70.20
71649;SHT31;70112;45.624;11.760;2024-01-15T20:25:06;4.29;70.19
71649;SHT31;70112;45.624;11.760;2024-01-15T20:27:33;4.28;70.06
71649;SHT31;70112;45.624;11.760;2024-01-15T20:30:19;4.20;69.95
71649;SHT31;70112;45.624;11.760;2024-01-15T20:33:09;4.09;69.92
71649;SHT31;70112;45.624;11.760;2024-01-15T20:35:46;4.02;70.09
71649;SHT31;70112;45.624;11.760;2024-01-15T20:40:48;4.01;70.46
71649;SHT31;70112;45.624;11.760;2024-01-15T20:43:13;4.05;70.54
71649;SHT31;70112;45.624;11.760;2024-01-15T20:46:01;4.05;70.51
71649;SHT31;70112;45.624;11.760;2024-01-15T20:48:47;4.05;70.50
71649;SHT31;70112;45.624;11.760;2024-01-15T20:51:19;4.05;70.49
71649;SHT31;70112;45.624;11.760;2024-01-15T20:53:45;4.02;70.49
71649;SHT31;70112;45.624;11.760;2024-01-15T20:56:12;4.00;70.43
71649;SHT31;70112;45.624;11.760;2024-01-15T20:58:38;3.95;70.49
71649;SHT31;70112;45.624;11.760;2024-01-15T21:01:04;3.91;70.56
71649;SHT31;70112;45.624;11.760;2024-01-15T21:03:29;3.95;70.55
71649;SHT31;70112;45.624;11.760;2024-01-15T21:05:56;3.95;69.87
71649;SHT31;70112;45.624;11.760;2024-01-15T21:08:23;3.86;69.84
71649;SHT31;70112;45.624;11.760;2024-01-15T21:13:45;3.67;69.94
71649;SHT31;70112;45.624;11.760;2024-01-15T21:16:18;3.67;69.96
71649;SHT31;70112;45.624;11.760;2024-01-15T21:19:05;3.67;70.00
71649;SHT31;70112;45.624;11.760;2024-01-15T21:21:32;3.67;70.06
71649;SHT31;70112;45.624;11.760;2024-01-15T21:24:06;3.67;70.08
71649;SHT31;70112;45.624;11.760;2024-01-15T21:29:34;3.54;69.78